Time;durP1;ratioP1;P1;durP2;ratioP2;P2;SDS_P1;SDS_P2;PMS_P1;PMS_P2;Temp;Humidity;BMP_temperature;BMP_pressure;BME280_temperature;BME280_humidity;BME280_pressure;Samples;Min_cycle;Max_cycle;Signal;HPM_P1;HPM_P2
2023/08/09 00:01:17;;;;;;;2.25;1.23;;;23.30;48.70;;;;;;5149374;27;45393;-67
2023/08/09 00:03:44;;;;;;;1.40;1.30;;;23.20;48.80;;;;;;5148937;27;45400;-68
2023/08/09 00:06:11;;;;;;;2.00;1.20;;;23.20;48.70;;;;;;5149169;27;45321;-67
2023/08/09 00:08:37;;;;;;;2.42;1.70;;;23.20;48.80;;;;;;5149527;27;45358;-67
2023/08/09 00:11:04;;;;;;;1.30;1.20;;;23.20;48.90;;;;;;5149650;27;45268;-67
2023/08/09 00:13:31;;;;;;;1.08;1.00;;;23.20;48.80;;;;;;5148859;27;45443;-68
2023/08/09 00:15:58;;;;;;;1.55;1.23;;;23.10;48.80;;;;;;5148748;27;46383;-67
2023/08/09 00:18:26;;;;;;;1.83;1.33;;;23.10;48.70;;;;;;5148894;27;45320;-68
2023/08/09 00:20:53;;;;;;;1.77;1.10;;;23.10;48.80;;;;;;5149246;27;45251;-68
2023/08/09 00:23:21;;;;;;;1.33;1.23;;;23.10;48.90;;;;;;5149645;27;45419;-68
2023/08/09 00:25:47;;;;;;;1.30;1.20;;;23.10;48.90;;;;;;5148719;27;47646;-68
2023/08/09 00:28:14;;;;;;;2.70;1.30;;;23.00;48.90;;;;;;5149029;27;45413;-68
2023/08/09 00:30:44;;;;;;;1.55;1.10;;;23.00;48.90;;;;;;5146179;27;45191;-68
2023/08/09 00:33:11;;;;;;;1.52;1.20;;;23.00;48.90;;;;;;5146419;27;45236;-68
2023/08/09 00:35:40;;;;;;;1.00;1.00;;;23.00;48.90;;;;;;5147571;27;45352;-68
2023/08/09 00:38:07;;;;;;;2.53;1.08;;;23.00;49.00;;;;;;5148708;27;45203;-68
2023/08/09 00:40:34;;;;;;;2.17;1.20;;;23.00;49.00;;;;;;5149093;27;45188;-68
2023/08/09 00:43:00;;;;;;;1.85;1.10;;;23.00;48.90;;;;;;5148924;27;45551;-67
2023/08/09 00:45:27;;;;;;;1.27;1.10;;;22.90;48.90;;;;;;5148585;27;46366;-68
2023/08/09 00:47:54;;;;;;;1.35;1.13;;;22.90;48.90;;;;;;5148641;27;45308;-68
2023/08/09 00:50:21;;;;;;;1.08;0.93;;;22.90;48.90;;;;;;5148496;27;45430;-68
2023/08/09 00:52:49;;;;;;;1.20;1.02;;;22.90;48.90;;;;;;5148835;27;45249;-68
2023/08/09 00:55:16;;;;;;;1.33;1.08;;;22.90;49.50;;;;;;5148086;27;46585;-68
2023/08/09 00:57:43;;;;;;;1.20;1.10;;;22.90;48.90;;;;;;5148028;27;45385;-68
2023/08/09 01:00:10;;;;;;;2.10;1.20;;;22.90;49.00;;;;;;5148276;27;45364;-68
2023/08/09 01:02:37;;;;;;;1.83;1.05;;;22.90;48.90;;;;;;5148511;27;45282;-68
2023/08/09 01:05:04;;;;;;;1.60;1.00;;;22.90;48.90;;;;;;5148284;27;45445;-68
2023/08/09 01:07:33;;;;;;;1.02;1.02;;;22.90;49.10;;;;;;5148320;27;45384;-68
2023/08/09 01:10:05;;;;;;;1.42;1.13;;;22.80;49.00;;;;;;5148193;27;45351;-68
2023/08/09 01:12:39;;;;;;;1.15;1.05;;;22.80;49.00;;;;;;5148544;27;45447;-68
2023/08/09 01:15:07;;;;;;;0.80;0.80;;;22.80;49.00;;;;;;5148120;27;46307;-68
2023/08/09 01:17:34;;;;;;;1.15;1.15;;;22.80;49.00;;;;;;5148414;27;45417;-68
2023/08/09 01:20:01;;;;;;;1.50;1.10;;;22.80;49.10;;;;;;5148352;27;45295;-68
2023/08/09 01:22:29;;;;;;;0.90;0.90;;;22.80;49.10;;;;;;5148483;27;45425;-69
2023/08/09 01:25:02;;;;;;;1.35;1.05;;;22.70;49.10;;;;;;5147988;27;46778;-69
2023/08/09 01:27:29;;;;;;;1.20;1.10;;;22.70;49.10;;;;;;5148121;27;45241;-70
2023/08/09 01:29:56;;;;;;;1.10;1.00;;;22.70;49.10;;;;;;5148676;27;45263;-68
2023/08/09 01:32:24;;;;;;;0.98;0.90;;;22.70;49.10;;;;;;5148153;27;45322;-68
2023/08/09 01:34:51;;;;;;;1.05;1.00;;;22.70;49.20;;;;;;5147796;27;46413;-68
2023/08/09 01:37:21;;;;;;;1.00;1.00;;;22.70;49.20;;;;;;5147874;27;45307;-68
2023/08/09 01:39:47;;;;;;;1.95;1.10;;;22.70;49.20;;;;;;5147168;27;45521;-68
2023/08/09 01:42:16;;;;;;;1.80;1.15;;;22.70;49.20;;;;;;5148038;27;45335;-68
2023/08/09 01:44:43;;;;;;;2.80;1.10;;;22.70;49.20;;;;;;5147772;27;46531;-68
2023/08/09 01:47:11;;;;;;;0.85;0.85;;;22.70;49.20;;;;;;5148653;27;44743;-68
2023/08/09 01:49:44;;;;;;;1.95;1.10;;;22.70;49.20;;;;;;5151782;27;45361;-68
2023/08/09 01:52:11;;;;;;;1.25;1.10;;;22.70;49.20;;;;;;5151341;27;45403;-66
2023/08/09 01:54:38;;;;;;;0.70;0.70;;;22.70;49.20;;;;;;5150360;27;45459;-68
2023/08/09 01:57:05;;;;;;;1.13;1.02;;;22.70;49.20;;;;;;5151431;27;45236;-68
2023/08/09 01:59:33;;;;;;;1.05;1.05;;;22.70;49.20;;;;;;5151516;27;45334;-69
2023/08/09 02:02:01;;;;;;;1.23;1.08;;;22.70;49.10;;;;;;5151649;27;45194;-68
2023/08/09 02:04:28;;;;;;;0.70;0.70;;;22.70;49.20;;;;;;5150936;27;45822;-68
2023/08/09 02:06:55;;;;;;;0.80;0.80;;;22.70;49.20;;;;;;5151106;27;45547;-68
2023/08/09 02:09:22;;;;;;;0.90;0.90;;;22.70;49.10;;;;;;5151436;27;45322;-68
2023/08/09 02:11:48;;;;;;;0.85;0.85;;;22.60;49.20;;;;;;5151363;27;45284;-68
2023/08/09 02:14:15;;;;;;;1.10;1.00;;;22.60;49.20;;;;;;5151095;27;47683;-67
2023/08/09 02:16:43;;;;;;;0.90;0.90;;;22.60;49.30;;;;;;5151294;27;45351;-67
2023/08/09 02:19:10;;;;;;;0.90;0.80;;;22.60;49.30;;;;;;5150927;27;45335;-67
2023/08/09 02:21:38;;;;;;;1.00;1.00;;;22.60;49.20;;;;;;5148617;27;45338;-68
2023/08/09 02:24:06;;;;;;;1.60;1.25;;;22.60;49.40;;;;;;5150496;27;45176;-68
2023/08/09 02:26:33;;;;;;;0.90;0.77;;;22.60;49.30;;;;;;5150659;27;45453;-68
2023/08/09 02:29:00;;;;;;;1.10;1.00;;;22.60;49.30;;;;;;5150946;27;45369;-67
2023/08/09 02:31:27;;;;;;;1.02;0.93;;;22.60;49.30;;;;;;5151112;27;45254;-67
2023/08/09 02:33:55;;;;;;;1.55;0.90;;;22.60;49.20;;;;;;5150076;27;45180;-67
2023/08/09 02:36:23;;;;;;;0.70;0.70;;;22.60;49.30;;;;;;5150942;27;45430;-66
2023/08/09 02:38:49;;;;;;;0.93;0.90;;;22.60;49.30;;;;;;5150420;27;45447;-69
2023/08/09 02:41:16;;;;;;;1.10;1.00;;;22.60;49.30;;;;;;5150976;27;45447;-68
2023/08/09 02:43:44;;;;;;;0.80;0.80;;;22.60;49.30;;;;;;5150351;27;46398;-69
2023/08/09 02:46:12;;;;;;;0.98;0.90;;;22.60;49.30;;;;;;5150401;27;45277;-68
2023/08/09 02:48:39;;;;;;;1.40;1.08;;;22.60;49.20;;;;;;5150665;27;45236;-67
2023/08/09 02:51:07;;;;;;;1.48;0.80;;;22.50;49.20;;;;;;5150852;27;45380;-67
2023/08/09 02:53:37;;;;;;;1.20;0.90;;;22.50;49.30;;;;;;5149984;27;45307;-67
2023/08/09 02:56:05;;;;;;;0.70;0.70;;;22.50;49.40;;;;;;5150377;27;45389;-69
2023/08/09 02:58:33;;;;;;;0.95;0.90;;;22.50;50.00;;;;;;5149296;27;45297;-69
2023/08/09 03:00:59;;;;;;;0.82;0.73;;;22.50;49.90;;;;;;5151229;27;45199;-69
2023/08/09 03:03:26;;;;;;;0.80;0.80;;;22.50;49.30;;;;;;5150023;27;46405;-69
2023/08/09 03:05:53;;;;;;;1.10;1.00;;;22.50;49.30;;;;;;5150234;27;45348;-68
2023/08/09 03:08:21;;;;;;;0.88;0.88;;;22.50;49.30;;;;;;5150036;27;45371;-68
2023/08/09 03:10:48;;;;;;;0.80;0.80;;;22.50;49.30;;;;;;5150515;27;45304;-69
2023/08/09 03:13:15;;;;;;;1.00;0.85;;;22.50;49.40;;;;;;5149939;27;46399;-69
2023/08/09 03:15:42;;;;;;;1.02;0.98;;;22.50;49.40;;;;;;5149672;27;45324;-69
2023/08/09 03:18:09;;;;;;;1.02;0.90;;;22.50;49.40;;;;;;5150085;27;45385;-68
2023/08/09 03:20:37;;;;;;;1.17;1.08;;;22.50;49.30;;;;;;5149817;27;45299;-68
2023/08/09 03:23:04;;;;;;;0.90;0.90;;;22.50;49.40;;;;;;5149422;27;45326;-69
2023/08/09 03:25:34;;;;;;;0.90;0.80;;;22.50;49.40;;;;;;5149455;27;45208;-69
2023/08/09 03:28:00;;;;;;;1.95;0.93;;;22.40;49.30;;;;;;5149250;27;45413;-69
2023/08/09 03:30:27;;;;;;;0.80;0.80;;;22.40;49.40;;;;;;5149809;27;45305;-69
2023/08/09 03:32:54;;;;;;;0.65;0.65;;;22.40;49.40;;;;;;5149046;27;46397;-69
2023/08/09 03:35:21;;;;;;;1.17;0.90;;;22.40;49.30;;;;;;5149413;27;45187;-69
2023/08/09 03:37:48;;;;;;;1.55;0.88;;;22.40;49.40;;;;;;5149638;27;45310;-69
2023/08/09 03:40:16;;;;;;;0.80;0.80;;;22.40;49.40;;;;;;5149552;27;45534;-69
2023/08/09 03:42:44;;;;;;;0.88;0.82;;;22.40;49.40;;;;;;5149199;27;45800;-69
2023/08/09 03:45:11;;;;;;;0.60;0.60;;;22.40;49.40;;;;;;5149267;27;45334;-69
2023/08/09 03:47:38;;;;;;;0.70;0.70;;;22.40;49.40;;;;;;5149681;27;45555;-69
2023/08/09 03:50:07;;;;;;;0.80;0.80;;;22.40;49.40;;;;;;5149887;27;45532;-69
2023/08/09 03:52:34;;;;;;;0.80;0.80;;;22.40;49.40;;;;;;5148927;27;45315;-69
2023/08/09 03:55:01;;;;;;;0.60;0.60;;;22.40;49.40;;;;;;5148821;27;45351;-69
2023/08/09 03:57:28;;;;;;;0.95;0.95;;;22.40;49.40;;;;;;5148983;27;45607;-69
2023/08/09 03:59:56;;;;;;;0.88;0.80;;;22.40;49.40;;;;;;5149555;27;45355;-69
2023/08/09 04:02:23;;;;;;;0.82;0.82;;;22.40;49.50;;;;;;5149073;27;46316;-68
2023/08/09 04:04:50;;;;;;;1.05;0.70;;;22.40;49.40;;;;;;5148778;27;45282;-68
2023/08/09 04:07:17;;;;;;;0.80;0.80;;;22.40;49.40;;;;;;5148459;27;45272;-68
2023/08/09 04:09:44;;;;;;;0.82;0.82;;;22.40;49.40;;;;;;5148975;27;45337;-68
2023/08/09 04:12:11;;;;;;;1.05;0.90;;;22.40;49.40;;;;;;5148981;27;46388;-68
2023/08/09 04:14:38;;;;;;;0.70;0.70;;;22.40;49.40;;;;;;5148388;27;45310;-68
2023/08/09 04:17:06;;;;;;;0.75;0.75;;;22.40;49.40;;;;;;5148763;27;45276;-69
2023/08/09 04:19:33;;;;;;;0.80;0.80;;;22.40;49.40;;;;;;5149221;27;45448;-70
2023/08/09 04:22:00;;;;;;;0.73;0.73;;;22.40;49.40;;;;;;5149059;27;45457;-68
2023/08/09 04:24:27;;;;;;;0.80;0.80;;;22.40;49.30;;;;;;5148378;27;45331;-69
2023/08/09 04:26:54;;;;;;;1.10;1.00;;;22.40;49.30;;;;;;5148706;27;45304;-68
2023/08/09 04:29:21;;;;;;;1.00;0.82;;;22.40;49.30;;;;;;5148801;27;45110;-69
2023/08/09 04:31:48;;;;;;;0.80;0.80;;;22.40;49.30;;;;;;5148302;27;45347;-69
2023/08/09 04:34:16;;;;;;;0.70;0.70;;;22.40;49.40;;;;;;5148193;27;45434;-68
2023/08/09 04:36:43;;;;;;;0.80;0.80;;;22.40;49.40;;;;;;5148684;27;45325;-69
2023/08/09 04:39:10;;;;;;;0.77;0.70;;;22.40;49.40;;;;;;5148530;27;45400;-69
2023/08/09 04:41:37;;;;;;;0.73;0.73;;;22.40;49.30;;;;;;5148092;27;45427;-69
2023/08/09 04:44:05;;;;;;;1.00;0.90;;;22.40;49.30;;;;;;5147843;27;45394;-68
2023/08/09 04:46:32;;;;;;;0.70;0.70;;;22.40;49.20;;;;;;5148439;27;45324;-68
2023/08/09 04:48:59;;;;;;;0.77;0.73;;;22.40;49.30;;;;;;5148566;27;45394;-68
2023/08/09 04:51:28;;;;;;;0.70;0.70;;;22.40;49.30;;;;;;5147509;27;45580;-68
2023/08/09 04:53:55;;;;;;;0.73;0.73;;;22.40;49.30;;;;;;5147701;27;45525;-68
2023/08/09 04:56:22;;;;;;;0.70;0.70;;;22.40;49.30;;;;;;5148117;27;45369;-69
2023/08/09 04:58:49;;;;;;;1.75;1.05;;;22.40;49.30;;;;;;5148697;27;45340;-68
2023/08/09 05:01:16;;;;;;;0.68;0.60;;;22.40;49.30;;;;;;5148108;27;45743;-69
2023/08/09 05:03:43;;;;;;;0.77;0.77;;;22.40;49.30;;;;;;5147612;27;45395;-68
2023/08/09 05:06:10;;;;;;;0.70;0.70;;;22.40;49.40;;;;;;5148293;27;45464;-69
2023/08/09 05:08:38;;;;;;;1.48;0.60;;;22.40;49.30;;;;;;5148291;27;45516;-68
2023/08/09 05:11:05;;;;;;;0.73;0.73;;;22.40;49.30;;;;;;5147609;27;45372;-69
2023/08/09 05:13:32;;;;;;;0.60;0.60;;;22.40;49.40;;;;;;5147676;27;45207;-69
2023/08/09 05:15:58;;;;;;;0.70;0.70;;;22.40;49.30;;;;;;5148025;27;45368;-69
2023/08/09 05:18:25;;;;;;;0.85;0.70;;;22.40;49.30;;;;;;5147651;27;45374;-68
2023/08/09 05:20:51;;;;;;;0.85;0.85;;;22.30;49.20;;;;;;5147546;27;47691;-68
2023/08/09 05:23:18;;;;;;;0.80;0.80;;;22.30;49.30;;;;;;5146886;27;45365;-68
2023/08/09 05:25:46;;;;;;;0.80;0.80;;;22.30;49.30;;;;;;5147521;27;45281;-69
2023/08/09 05:28:13;;;;;;;0.70;0.70;;;22.30;49.20;;;;;;5147872;27;45406;-68
2023/08/09 05:30:40;;;;;;;0.77;0.70;;;22.30;49.30;;;;;;5147372;27;46278;-68
2023/08/09 05:33:07;;;;;;;0.73;0.73;;;22.30;49.30;;;;;;5147461;27;45450;-69
2023/08/09 05:35:34;;;;;;;2.05;0.80;;;22.30;49.30;;;;;;5147544;27;45277;-66
2023/08/09 05:38:00;;;;;;;0.70;0.70;;;22.30;49.40;;;;;;5148065;27;45249;-71
2023/08/09 05:40:27;;;;;;;2.00;0.70;;;22.30;49.70;;;;;;5147759;27;45207;-72
2023/08/09 05:42:55;;;;;;;3.30;1.00;;;22.40;49.60;;;;;;5147846;27;45427;-67
2023/08/09 05:45:22;;;;;;;3.72;0.90;;;22.50;49.60;;;;;;5147474;27;45346;-71
2023/08/09 05:47:49;;;;;;;1.40;0.63;;;22.50;49.60;;;;;;5148765;27;45306;-69
2023/08/09 05:50:16;;;;;;;3.00;1.05;;;22.50;49.50;;;;;;5147888;27;45291;-68
2023/08/09 05:52:43;;;;;;;2.45;0.82;;;22.60;49.40;;;;;;5147954;27;45294;-70
2023/08/09 05:55:10;;;;;;;4.30;1.00;;;22.70;49.30;;;;;;5147361;27;45344;-71
2023/08/09 05:57:37;;;;;;;2.10;0.90;;;22.60;49.10;;;;;;5147675;27;45419;-71
2023/08/09 06:00:11;;;;;;;1.27;0.88;;;22.70;49.30;;;;;;5147809;27;45344;-72
2023/08/09 06:02:38;;;;;;;3.88;0.93;;;22.70;49.30;;;;;;5149823;27;45423;-75
2023/08/09 06:05:05;;;;;;;1.88;1.00;;;22.80;49.20;;;;;;5147795;27;45265;-69
2023/08/09 06:07:32;;;;;;;0.80;0.80;;;22.80;49.20;;;;;;5147651;27;45271;-70
2023/08/09 06:09:59;;;;;;;3.85;1.20;;;22.80;49.00;;;;;;5147018;27;45381;-68
2023/08/09 06:12:26;;;;;;;0.90;0.90;;;22.80;49.10;;;;;;5147326;27;45334;-70
2023/08/09 06:14:53;;;;;;;1.08;0.90;;;22.90;49.10;;;;;;5147449;27;45478;-68
2023/08/09 06:17:21;;;;;;;2.83;0.82;;;22.90;48.70;;;;;;5147426;27;45336;-71
2023/08/09 06:19:48;;;;;;;0.60;0.60;;;22.90;48.60;;;;;;5146789;27;45324;-69
2023/08/09 06:22:14;;;;;;;3.55;0.77;;;22.90;48.60;;;;;;5146673;27;45222;-68
2023/08/09 06:24:41;;;;;;;3.53;0.88;;;22.90;48.70;;;;;;5146754;27;45244;-70
2023/08/09 06:27:08;;;;;;;2.00;0.90;;;22.90;48.80;;;;;;5149007;27;45363;-68
2023/08/09 06:29:35;;;;;;;3.25;0.93;;;22.90;48.80;;;;;;5146740;27;45298;-74
2023/08/09 06:32:02;;;;;;;4.03;0.98;;;22.90;48.70;;;;;;5146789;27;45327;-68
2023/08/09 06:34:30;;;;;;;1.95;0.90;;;22.90;48.70;;;;;;5147960;27;45393;-68
2023/08/09 06:36:57;;;;;;;2.17;0.90;;;22.90;48.70;;;;;;5150125;27;45425;-66
2023/08/09 06:39:24;;;;;;;1.30;0.95;;;22.90;48.70;;;;;;5149958;27;46320;-67
2023/08/09 06:41:51;;;;;;;2.38;0.95;;;22.90;48.80;;;;;;5150128;27;45332;-67
2023/08/09 06:44:18;;;;;;;1.25;0.80;;;22.90;49.40;;;;;;5150073;27;45212;-68
2023/08/09 06:46:44;;;;;;;1.98;0.80;;;22.80;48.70;;;;;;5149768;27;45473;-68
2023/08/09 06:49:12;;;;;;;3.95;1.10;;;22.80;48.80;;;;;;5149881;27;46404;-67
2023/08/09 06:51:41;;;;;;;3.00;1.00;;;22.80;48.80;;;;;;5149711;27;45278;-67
2023/08/09 06:54:08;;;;;;;2.00;0.80;;;22.80;48.80;;;;;;5149558;27;45368;-69
2023/08/09 06:56:35;;;;;;;3.15;0.88;;;22.70;48.80;;;;;;5149935;27;45324;-66
2023/08/09 06:59:02;;;;;;;0.80;0.70;;;22.70;48.80;;;;;;5149675;27;45445;-67
2023/08/09 07:01:29;;;;;;;1.00;0.80;;;22.70;48.90;;;;;;5149683;27;45272;-67
2023/08/09 07:03:56;;;;;;;2.60;1.08;;;22.70;48.90;;;;;;5149616;27;45318;-73
2023/08/09 07:06:23;;;;;;;3.38;0.90;;;22.70;49.60;;;;;;5150119;27;45294;-70
2023/08/09 07:08:53;;;;;;;1.15;0.93;;;22.70;49.80;;;;;;5149979;27;45445;-73
2023/08/09 07:11:20;;;;;;;6.95;1.25;;;22.70;49.60;;;;;;5150518;27;45395;-75
2023/08/09 07:13:47;;;;;;;4.25;1.20;;;22.80;50.10;;;;;;5150249;27;45322;-72
2023/08/09 07:16:14;;;;;;;3.10;0.90;;;22.90;50.00;;;;;;5150291;27;45571;-66
2023/08/09 07:18:40;;;;;;;4.18;1.00;;;22.90;49.40;;;;;;5147065;27;45480;-72
2023/08/09 07:21:07;;;;;;;1.15;1.00;;;22.90;50.20;;;;;;5143942;27;45413;-70
2023/08/09 07:23:34;;;;;;;1.52;0.88;;;23.00;49.60;;;;;;5149779;27;45341;-69
2023/08/09 07:26:02;;;;;;;2.90;1.00;;;23.00;49.70;;;;;;5149998;27;45314;-72
2023/08/09 07:28:29;;;;;;;3.30;0.70;;;23.00;49.40;;;;;;5149216;27;45382;-76
2023/08/09 07:30:56;;;;;;;4.57;0.90;;;23.10;49.20;;;;;;5149846;27;45520;-69
2023/08/09 07:33:23;;;;;;;0.93;0.88;;;23.10;49.40;;;;;;5150016;27;45334;-70
2023/08/09 07:35:50;;;;;;;10.25;1.13;;;23.10;49.30;;;;;;5149932;27;45257;-72
2023/08/09 07:38:17;;;;;;;7.57;1.10;;;23.20;49.50;;;;;;5149472;27;47535;-73
2023/08/09 07:40:43;;;;;;;0.93;0.80;;;23.20;50.20;;;;;;5149167;27;45224;-71
2023/08/09 07:43:12;;;;;;;1.10;0.90;;;23.20;49.20;;;;;;5146943;27;45413;-70
2023/08/09 07:45:41;;;;;;;1.60;0.98;;;23.20;49.10;;;;;;5149153;27;45209;-70
2023/08/09 07:48:08;;;;;;;2.22;0.75;;;23.20;49.00;;;;;;5148863;27;47054;-70
2023/08/09 07:50:35;;;;;;;1.17;0.73;;;23.20;49.00;;;;;;5148814;27;45325;-70
2023/08/09 07:53:01;;;;;;;1.73;0.90;;;23.10;48.90;;;;;;5149378;27;45343;-70
2023/08/09 07:55:29;;;;;;;0.95;0.90;;;23.10;48.90;;;;;;5149508;27;45370;-70
2023/08/09 07:57:56;;;;;;;2.60;0.85;;;23.10;49.00;;;;;;5147646;27;45529;-70
2023/08/09 08:00:24;;;;;;;4.80;0.82;;;23.10;49.10;;;;;;5139013;27;45501;-70
2023/08/09 08:02:51;;;;;;;1.55;0.70;;;23.00;49.00;;;;;;5146150;27;45382;-70
2023/08/09 08:05:18;;;;;;;0.88;0.88;;;23.00;49.00;;;;;;5149153;27;45392;-70
2023/08/09 08:07:45;;;;;;;2.05;0.90;;;23.00;48.90;;;;;;5145275;27;46390;-70
2023/08/09 08:10:14;;;;;;;1.27;1.00;;;23.00;48.90;;;;;;5143995;27;45219;-70
2023/08/09 08:12:41;;;;;;;3.55;0.88;;;23.00;49.00;;;;;;5146723;27;45375;-71
2023/08/09 08:15:08;;;;;;;1.45;0.90;;;23.00;48.90;;;;;;5149336;27;45399;-69
2023/08/09 08:17:36;;;;;;;0.75;0.75;;;23.00;49.00;;;;;;5146332;27;46481;-70
2023/08/09 08:20:06;;;;;;;1.13;0.93;;;23.00;48.90;;;;;;5145922;27;45272;-69
2023/08/09 08:22:33;;;;;;;3.72;0.85;;;23.00;48.90;;;;;;5146004;27;45659;-71
2023/08/09 08:25:00;;;;;;;3.25;0.80;;;23.00;49.00;;;;;;5137537;27;45348;-70
2023/08/09 08:27:27;;;;;;;2.78;0.90;;;23.00;49.00;;;;;;5145752;27;46107;-70
2023/08/09 08:29:55;;;;;;;2.13;1.08;;;23.00;49.10;;;;;;5143538;27;45328;-70
2023/08/09 08:32:22;;;;;;;2.83;0.98;;;23.00;49.00;;;;;;5137293;27;45347;-72
2023/08/09 08:34:50;;;;;;;3.50;1.10;;;23.00;49.00;;;;;;5148230;27;45430;-70
2023/08/09 08:37:17;;;;;;;0.85;0.80;;;23.00;49.00;;;;;;5147720;27;45245;-71
2023/08/09 08:39:44;;;;;;;1.60;1.00;;;23.00;49.00;;;;;;5127520;27;45320;-70
2023/08/09 08:42:11;;;;;;;1.15;0.90;;;23.00;49.00;;;;;;5134872;27;45322;-69
2023/08/09 08:44:38;;;;;;;1.30;0.85;;;23.00;49.00;;;;;;5147577;27;45324;-70
2023/08/09 08:47:05;;;;;;;1.27;0.80;;;23.00;49.10;;;;;;5145823;27;46661;-70
2023/08/09 08:49:33;;;;;;;1.13;0.90;;;23.00;49.10;;;;;;5145548;27;45314;-70
2023/08/09 08:52:02;;;;;;;1.05;0.80;;;22.90;49.10;;;;;;5147540;27;45412;-70
2023/08/09 08:54:29;;;;;;;3.92;0.80;;;22.90;49.10;;;;;;5147669;27;45395;-70
2023/08/09 08:56:56;;;;;;;1.88;0.90;;;22.90;49.10;;;;;;5145933;27;46811;-70
2023/08/09 08:59:23;;;;;;;0.80;0.80;;;22.90;49.00;;;;;;5145624;27;45286;-69
2023/08/09 09:01:51;;;;;;;3.05;0.82;;;23.00;49.10;;;;;;5148411;27;45461;-69
2023/08/09 09:04:18;;;;;;;0.73;0.73;;;22.90;49.10;;;;;;5143712;27;45354;-70
2023/08/09 09:06:45;;;;;;;1.25;0.75;;;23.00;49.10;;;;;;5126967;27;45498;-70
2023/08/09 09:09:14;;;;;;;0.70;0.70;;;23.00;49.10;;;;;;5142882;27;45314;-69
2023/08/09 09:11:41;;;;;;;2.47;0.75;;;22.90;49.10;;;;;;5148351;27;45326;-70
2023/08/09 09:14:10;;;;;;;0.85;0.68;;;23.00;49.10;;;;;;5146929;27;45457;-70
2023/08/09 09:16:37;;;;;;;1.42;0.80;;;23.00;49.10;;;;;;5147658;27;45466;-70
2023/08/09 09:19:04;;;;;;;0.90;0.90;;;23.00;49.10;;;;;;5145868;27;45466;-70
2023/08/09 09:21:32;;;;;;;0.73;0.70;;;23.00;49.00;;;;;;5150313;27;45430;-69
2023/08/09 09:24:02;;;;;;;2.78;0.75;;;23.00;49.00;;;;;;5146662;27;45342;-69
2023/08/09 09:26:30;;;;;;;1.02;0.90;;;23.00;49.10;;;;;;5147616;27;47581;-70
2023/08/09 09:28:57;;;;;;;2.08;1.00;;;23.00;49.00;;;;;;5146232;27;45591;-70
2023/08/09 09:31:24;;;;;;;1.30;0.70;;;23.00;49.10;;;;;;5142700;27;45546;-69
2023/08/09 09:33:51;;;;;;;2.13;0.60;;;23.00;49.00;;;;;;5145226;27;45426;-69
2023/08/09 09:36:19;;;;;;;1.20;1.00;;;23.00;49.00;;;;;;5146444;27;46280;-69
2023/08/09 09:38:47;;;;;;;0.95;0.73;;;23.00;48.90;;;;;;5146949;27;45549;-70
2023/08/09 09:41:15;;;;;;;1.45;0.80;;;23.00;48.90;;;;;;5147840;27;45441;-69
2023/08/09 09:43:43;;;;;;;1.60;0.95;;;23.10;48.80;;;;;;5147164;27;45457;-69
2023/08/09 09:46:20;;;;;;;0.57;0.57;;;23.10;48.80;;;;;;5145366;27;47485;-70
2023/08/09 09:48:51;;;;;;;1.00;0.80;;;23.10;48.80;;;;;;5145933;27;45405;-69
2023/08/09 09:51:18;;;;;;;1.35;0.70;;;23.10;48.70;;;;;;5146896;27;45266;-69
2023/08/09 09:53:46;;;;;;;0.73;0.73;;;23.20;48.70;;;;;;5146343;27;45482;-69
2023/08/09 09:56:13;;;;;;;0.70;0.70;;;23.20;48.70;;;;;;5146912;27;46456;-69
2023/08/09 09:58:40;;;;;;;2.15;0.75;;;23.20;48.70;;;;;;5144418;27;45536;-69
2023/08/09 10:01:09;;;;;;;1.55;1.00;;;23.20;48.70;;;;;;5145409;27;45510;-70
2023/08/09 10:03:38;;;;;;;0.60;0.60;;;23.20;48.60;;;;;;5145534;27;45949;-69
2023/08/09 10:06:05;;;;;;;0.70;0.70;;;23.20;48.60;;;;;;5146021;27;45409;-70
2023/08/09 10:08:32;;;;;;;0.65;0.65;;;23.20;48.60;;;;;;5147404;27;45347;-69
2023/08/09 10:10:59;;;;;;;0.82;0.77;;;23.20;48.70;;;;;;5147780;27;45170;-69
2023/08/09 10:13:26;;;;;;;1.13;0.90;;;23.30;48.70;;;;;;5149048;27;45439;-69
2023/08/09 10:15:54;;;;;;;1.60;0.88;;;23.30;48.70;;;;;;5148765;27;47353;-70
2023/08/09 10:18:25;;;;;;;0.85;0.77;;;23.30;48.80;;;;;;5150893;27;45261;-69
2023/08/09 10:20:55;;;;;;;3.65;1.00;;;23.30;48.70;;;;;;5149767;27;45319;-70
2023/08/09 10:23:22;;;;;;;0.80;0.80;;;23.30;48.70;;;;;;5151212;27;45451;-71
2023/08/09 10:25:50;;;;;;;1.38;0.93;;;23.40;48.70;;;;;;5149038;27;47083;-71
2023/08/09 10:28:17;;;;;;;0.85;0.60;;;23.40;48.70;;;;;;5148828;27;45536;-72
2023/08/09 10:30:45;;;;;;;1.02;0.68;;;23.50;48.80;;;;;;5147756;27;45613;-71
2023/08/09 10:33:18;;;;;;;0.68;0.60;;;23.50;48.80;;;;;;5147064;27;45541;-71
2023/08/09 10:35:48;;;;;;;1.27;0.75;;;23.50;48.80;;;;;;5142519;27;46391;-72
2023/08/09 10:38:15;;;;;;;0.95;0.60;;;23.50;48.80;;;;;;5147934;27;45412;-71
2023/08/09 10:40:42;;;;;;;1.42;1.00;;;23.50;48.90;;;;;;5149467;27;45420;-70
2023/08/09 10:43:09;;;;;;;1.15;0.82;;;23.50;48.90;;;;;;5149965;27;45633;-70
2023/08/09 10:45:36;;;;;;;1.73;0.82;;;23.50;48.90;;;;;;5150259;27;45442;-70
2023/08/09 10:48:21;;;;;;;2.97;0.75;;;23.50;48.90;;;;;;5149781;27;45312;-71
2023/08/09 10:51:00;;;;;;;0.70;0.70;;;23.50;49.00;;;;;;5149354;27;45399;-71
2023/08/09 10:53:27;;;;;;;2.25;0.80;;;23.50;49.00;;;;;;5149393;27;45459;-71
2023/08/09 10:55:56;;;;;;;0.60;0.60;;;23.60;49.00;;;;;;5150323;27;45493;-70
2023/08/09 10:58:26;;;;;;;0.60;0.60;;;23.60;48.80;;;;;;5148649;27;45343;-71
2023/08/09 11:00:53;;;;;;;0.70;0.70;;;23.60;48.80;;;;;;5148471;27;45432;-71
2023/08/09 11:03:22;;;;;;;1.08;0.65;;;23.60;48.70;;;;;;5146861;27;45493;-71
2023/08/09 11:05:50;;;;;;;1.58;1.00;;;23.60;48.70;;;;;;5150187;27;45314;-71
2023/08/09 11:08:18;;;;;;;0.68;0.68;;;23.70;48.90;;;;;;5148080;27;45320;-70
2023/08/09 11:10:46;;;;;;;1.48;0.98;;;23.70;48.70;;;;;;5129387;27;45445;-71
2023/08/09 11:13:13;;;;;;;1.08;0.90;;;23.70;48.70;;;;;;5147636;27;45260;-70
2023/08/09 11:15:42;;;;;;;0.70;0.70;;;23.70;48.90;;;;;;5147822;27;45526;-70
2023/08/09 11:18:09;;;;;;;1.27;0.75;;;23.70;49.50;;;;;;5141433;27;45358;-70
2023/08/09 11:20:36;;;;;;;1.35;1.20;;;23.70;48.80;;;;;;5146048;27;45275;-70
2023/08/09 11:23:04;;;;;;;2.47;1.05;;;23.70;48.70;;;;;;5137726;27;45365;-70
2023/08/09 11:25:32;;;;;;;1.27;0.70;;;23.80;48.90;;;;;;5150307;27;45434;-70
2023/08/09 11:28:00;;;;;;;2.85;0.90;;;23.80;48.80;;;;;;5150564;27;45345;-70
2023/08/09 11:30:29;;;;;;;1.23;0.70;;;23.90;49.40;;;;;;5149953;27;45343;-70
2023/08/09 11:32:57;;;;;;;2.40;1.08;;;24.00;48.60;;;;;;5163667;27;45540;-71
2023/08/09 11:35:30;;;;;;;0.70;0.70;;;24.10;48.50;;;;;;5147582;27;45494;-70
2023/08/09 11:37:58;;;;;;;1.92;1.05;;;24.20;48.40;;;;;;5149886;27;45326;-70
2023/08/09 11:40:26;;;;;;;2.72;0.82;;;24.20;48.30;;;;;;5149661;27;45296;-70
2023/08/09 11:42:57;;;;;;;0.90;0.90;;;24.20;48.50;;;;;;5147828;27;45304;-70
2023/08/09 11:45:24;;;;;;;1.77;0.90;;;24.20;48.70;;;;;;5146362;27;45654;-70
2023/08/09 11:47:52;;;;;;;0.73;0.73;;;24.20;48.80;;;;;;5147929;27;45308;-71
2023/08/09 11:50:23;;;;;;;1.25;0.90;;;24.20;48.90;;;;;;5148288;27;45379;-71
2023/08/09 11:52:54;;;;;;;1.08;0.88;;;24.20;49.10;;;;;;5148956;27;45376;-70
2023/08/09 11:55:21;;;;;;;1.15;0.93;;;24.20;49.20;;;;;;5148573;27;45368;-69
2023/08/09 11:57:50;;;;;;;3.40;1.08;;;24.20;49.30;;;;;;5148951;27;45417;-71
2023/08/09 12:00:17;;;;;;;1.00;0.90;;;24.20;49.30;;;;;;5147817;27;45489;-70
2023/08/09 12:02:44;;;;;;;2.10;0.90;;;24.20;49.30;;;;;;5148139;27;45319;-71
2023/08/09 12:05:12;;;;;;;2.03;1.02;;;24.20;49.40;;;;;;5147637;27;46406;-71
2023/08/09 12:07:39;;;;;;;1.77;0.80;;;24.20;49.50;;;;;;5147482;27;45552;-71
2023/08/09 12:10:10;;;;;;;2.95;0.90;;;24.20;49.50;;;;;;5144486;27;45580;-70
2023/08/09 12:12:37;;;;;;;1.10;0.93;;;24.30;49.60;;;;;;5146647;27;45481;-70
2023/08/09 12:15:10;;;;;;;2.72;1.10;;;24.20;49.70;;;;;;5142332;27;46739;-71
2023/08/09 12:17:37;;;;;;;2.05;0.82;;;24.30;49.80;;;;;;5145672;27;45265;-70
2023/08/09 12:20:06;;;;;;;1.67;0.90;;;24.30;49.90;;;;;;5147995;27;45355;-69
2023/08/09 12:22:33;;;;;;;2.33;0.90;;;24.30;49.90;;;;;;5149925;27;45296;-70
2023/08/09 12:25:00;;;;;;;1.17;1.08;;;24.30;49.90;;;;;;5148123;27;46409;-70
2023/08/09 12:27:27;;;;;;;1.40;0.98;;;24.40;49.90;;;;;;5150555;27;45457;-71
2023/08/09 12:29:54;;;;;;;1.30;1.10;;;24.60;49.60;;;;;;5146982;27;45309;-69
2023/08/09 12:32:22;;;;;;;1.25;1.10;;;24.70;49.30;;;;;;5143882;27;45417;-70
2023/08/09 12:34:49;;;;;;;1.33;1.23;;;24.80;49.20;;;;;;5144982;27;46380;-70
2023/08/09 12:37:16;;;;;;;1.55;1.25;;;24.80;49.20;;;;;;5147205;27;45549;-69
2023/08/09 12:39:43;;;;;;;2.88;1.48;;;24.80;49.10;;;;;;5158426;27;45772;-70
2023/08/09 12:42:10;;;;;;;2.10;1.10;;;24.80;49.20;;;;;;5147348;27;45559;-70
2023/08/09 12:44:38;;;;;;;1.50;1.20;;;24.80;49.30;;;;;;5164282;27;46834;-69
2023/08/09 12:47:06;;;;;;;3.88;1.40;;;24.80;49.40;;;;;;5169470;27;45336;-69
2023/08/09 12:49:34;;;;;;;1.50;1.40;;;24.80;49.30;;;;;;5169706;27;45305;-69